Time;durP1;ratioP1;P1;durP2;ratioP2;P2;SDS_P1;SDS_P2;PMS_P1;PMS_P2;Temp;Humidity;BMP_temperature;BMP_pressure;BME280_temperature;BME280_humidity;BME280_pressure;Samples;Min_cycle;Max_cycle;Signal;HPM_P1;HPM_P2
2024/03/17 00:01:03;;;;;;;16.98;8.68;;;;;;;8.78;100.00;101212.00;5046722;28;20562;-69
2024/03/17 00:03:29;;;;;;;13.68;7.15;;;;;;;8.77;100.00;101210.34;5051538;28;20028;-69
2024/03/17 00:05:59;;;;;;;14.27;6.47;;;;;;;8.81;100.00;101218.72;5046342;28;20111;-69
2024/03/17 00:08:25;;;;;;;13.80;5.53;;;;;;;8.93;100.00;101218.66;5045812;28;20025;-69
2024/03/17 00:10:51;;;;;;;13.32;6.65;;;;;;;8.96;100.00;101212.41;5040838;28;20053;-69
2024/03/17 00:13:17;;;;;;;9.63;5.63;;;;;;;8.88;100.00;101219.94;5055329;28;20025;-69
2024/03/17 00:15:43;;;;;;;10.20;5.70;;;;;;;8.94;100.00;101214.28;5041768;28;20078;-69
2024/03/17 00:18:09;;;;;;;13.73;5.97;;;;;;;8.88;100.00;101215.56;5045619;28;20035;-69
2024/03/17 00:20:34;;;;;;;14.25;7.03;;;;;;;8.75;100.00;101224.38;5054580;28;20025;-69
2024/03/17 00:22:59;;;;;;;13.35;6.15;;;;;;;8.61;100.00;101226.22;5047983;28;20116;-69
2024/03/17 00:25:25;;;;;;;16.85;7.70;;;;;;;8.54;100.00;101229.38;5050131;28;20029;-69
2024/03/17 00:27:55;;;;;;;17.05;8.27;;;;;;;8.64;100.00;101226.00;5045638;28;20445;-69
2024/03/17 00:30:21;;;;;;;13.55;7.35;;;;;;;8.73;100.00;101224.50;5046099;28;20079;-68
2024/03/17 00:32:46;;;;;;;14.73;7.78;;;;;;;8.62;100.00;101219.28;5051585;28;20041;-69
2024/03/17 00:35:14;;;;;;;12.82;7.00;;;;;;;8.66;100.00;101220.69;5047239;28;20144;-69
2024/03/17 00:37:39;;;;;;;18.33;7.03;;;;;;;8.62;100.00;101217.50;5049610;28;20032;-69
2024/03/17 00:40:06;;;;;;;14.52;5.80;;;;;;;8.63;100.00;101219.16;5051931;28;20045;-69
2024/03/17 00:42:32;;;;;;;13.80;4.18;;;;;;;8.80;100.00;101217.91;5051060;28;20029;-69
2024/03/17 00:44:59;;;;;;;8.82;3.75;;;;;;;8.94;100.00;101216.88;5045997;28;20123;-69
2024/03/17 00:47:25;;;;;;;8.43;4.05;;;;;;;9.06;100.00;101212.50;5051277;28;20082;-69
2024/03/17 00:49:51;;;;;;;9.60;3.67;;;;;;;9.04;100.00;101210.00;5045302;28;20033;-69
2024/03/17 00:52:17;;;;;;;9.55;3.95;;;;;;;9.02;100.00;101211.91;5048216;28;20032;-69
2024/03/17 00:54:42;;;;;;;9.10;4.65;;;;;;;9.03;100.00;101210.13;5050657;28;20488;-69
2024/03/17 00:57:08;;;;;;;11.73;4.75;;;;;;;9.07;100.00;101214.16;5049155;28;20559;-69
2024/03/17 00:59:33;;;;;;;8.55;4.53;;;;;;;9.08;100.00;101208.84;5050211;28;20120;-69
2024/03/17 01:01:58;;;;;;;8.82;3.90;;;;;;;9.08;100.00;101200.22;5047335;28;20029;-69
2024/03/17 01:04:24;;;;;;;13.10;4.32;;;;;;;9.03;100.00;101197.13;5048477;28;20032;-69
2024/03/17 01:06:49;;;;;;;8.07;3.58;;;;;;;9.03;100.00;101199.72;5051974;28;20028;-69
2024/03/17 01:09:15;;;;;;;14.02;4.47;;;;;;;8.97;100.00;101196.69;5047205;28;20033;-69
2024/03/17 01:11:40;;;;;;;8.18;3.22;;;;;;;8.95;100.00;101185.56;5052094;28;20029;-69
2024/03/17 01:14:07;;;;;;;9.05;3.40;;;;;;;8.95;100.00;101195.97;5051529;28;20123;-68
2024/03/17 01:16:33;;;;;;;8.27;3.17;;;;;;;8.91;100.00;101194.53;5054755;28;20028;-69
2024/03/17 01:18:58;;;;;;;5.78;3.00;;;;;;;8.89;100.00;101201.63;5046442;28;20052;-69
2024/03/17 01:21:24;;;;;;;9.98;3.35;;;;;;;8.90;100.00;101198.09;5042074;28;20507;-69
2024/03/17 01:23:49;;;;;;;6.05;2.90;;;;;;;8.85;100.00;101195.00;5051209;28;20091;-69
2024/03/17 01:26:15;;;;;;;8.13;2.67;;;;;;;8.87;100.00;101194.91;5046286;28;20392;-69
2024/03/17 01:28:40;;;;;;;9.90;3.15;;;;;;;8.91;100.00;101189.34;5043032;28;20044;-69
2024/03/17 01:31:06;;;;;;;7.78;3.17;;;;;;;8.87;100.00;101194.91;5035617;28;20076;-69
2024/03/17 01:33:32;;;;;;;7.38;3.60;;;;;;;8.85;100.00;101188.97;5048636;28;20484;-69
2024/03/17 01:35:57;;;;;;;7.35;3.28;;;;;;;8.85;100.00;101184.63;5038085;28;20025;-69
2024/03/17 01:38:23;;;;;;;5.57;3.72;;;;;;;8.88;100.00;101186.16;5039802;28;20036;-70
2024/03/17 01:40:48;;;;;;;5.60;2.80;;;;;;;8.89;100.00;101186.03;5039666;28;20113;-69
2024/03/17 01:43:14;;;;;;;8.57;3.85;;;;;;;8.87;100.00;101187.94;5038529;28;20038;-69
2024/03/17 01:45:39;;;;;;;5.95;3.00;;;;;;;8.87;100.00;101195.72;5044595;28;20024;-69
2024/03/17 01:48:14;;;;;;;7.80;3.33;;;;;;;8.86;100.00;101198.44;5040401;28;20029;-69
2024/03/17 01:50:39;;;;;;;8.05;4.20;;;;;;;8.85;100.00;101200.19;5042580;28;20121;-69
2024/03/17 01:53:08;;;;;;;8.57;3.72;;;;;;;8.84;100.00;101198.56;5037914;28;20101;-69
2024/03/17 01:55:37;;;;;;;5.95;2.85;;;;;;;8.83;100.00;101204.69;5039411;28;20029;-69
2024/03/17 01:58:10;;;;;;;6.82;2.80;;;;;;;8.79;100.00;101192.88;5036845;28;20037;-69
2024/03/17 02:00:36;;;;;;;7.10;2.92;;;;;;;8.71;100.00;101187.41;5039999;28;20168;-69
2024/03/17 02:03:04;;;;;;;7.70;3.35;;;;;;;8.68;100.00;101189.41;5041036;28;20025;-69
2024/03/17 02:05:29;;;;;;;11.98;3.15;;;;;;;8.67;100.00;101187.75;5048016;28;20108;-69
2024/03/17 02:07:54;;;;;;;7.13;3.22;;;;;;;8.67;100.00;101180.78;5045401;28;20127;-69
2024/03/17 02:10:21;;;;;;;4.47;2.03;;;;;;;8.69;100.00;101189.28;5047171;28;20382;-69
2024/03/17 02:12:47;;;;;;;11.38;3.15;;;;;;;8.64;100.00;101184.44;5045342;28;20036;-69
2024/03/17 02:15:14;;;;;;;6.78;2.60;;;;;;;8.63;100.00;101187.16;5041523;28;20041;-68
2024/03/17 02:17:39;;;;;;;7.57;3.08;;;;;;;8.56;100.00;101188.53;5044214;28;20033;-69
2024/03/17 02:20:07;;;;;;;8.73;3.03;;;;;;;8.54;100.00;101191.25;5040622;28;20036;-69
2024/03/17 02:22:34;;;;;;;5.03;2.92;;;;;;;8.57;100.00;101188.44;5043050;28;20035;-70
2024/03/17 02:25:01;;;;;;;9.82;3.17;;;;;;;8.60;100.00;101192.56;5042730;28;20034;-69
2024/03/17 02:27:26;;;;;;;10.80;2.92;;;;;;;8.63;100.00;101192.34;5043030;28;20054;-69
2024/03/17 02:29:51;;;;;;;5.65;2.75;;;;;;;8.59;100.00;101193.53;5047316;28;20483;-68
2024/03/17 02:32:17;;;;;;;10.40;2.85;;;;;;;8.55;100.00;101186.88;5044076;28;20041;-68
2024/03/17 02:34:44;;;;;;;6.90;1.98;;;;;;;8.52;100.00;101190.53;5045359;28;20025;-69
2024/03/17 02:37:10;;;;;;;5.63;2.55;;;;;;;8.52;100.00;101194.91;5045292;28;20039;-69
2024/03/17 02:39:36;;;;;;;9.85;2.53;;;;;;;8.51;100.00;101199.28;5044955;28;20041;-69
2024/03/17 02:42:06;;;;;;;7.68;2.67;;;;;;;8.50;100.00;101196.81;5047481;28;20025;-69
2024/03/17 02:44:32;;;;;;;7.30;2.75;;;;;;;8.49;100.00;101198.59;5044004;28;20033;-69
2024/03/17 02:47:08;;;;;;;6.18;2.40;;;;;;;8.48;100.00;101206.50;5046703;28;20161;-69
2024/03/17 02:49:39;;;;;;;4.57;2.60;;;;;;;8.44;100.00;101198.09;5043979;28;20135;-69
2024/03/17 02:52:14;;;;;;;6.10;3.53;;;;;;;8.45;100.00;101193.72;5041155;28;20029;-69
2024/03/17 02:54:39;;;;;;;13.02;3.03;;;;;;;8.42;100.00;101192.19;5045434;28;20035;-69
2024/03/17 02:57:06;;;;;;;7.72;3.00;;;;;;;8.40;100.00;101194.06;5042070;28;20025;-69
2024/03/17 02:59:32;;;;;;;7.78;2.83;;;;;;;8.42;100.00;101201.75;5042720;28;20449;-69
2024/03/17 03:01:59;;;;;;;6.03;3.00;;;;;;;8.36;100.00;101200.44;5045569;28;20029;-69
2024/03/17 03:04:25;;;;;;;5.18;2.70;;;;;;;8.30;100.00;101196.47;5037498;28;20033;-69
2024/03/17 03:06:50;;;;;;;11.57;2.50;;;;;;;8.24;100.00;101203.88;5042982;28;20094;-69
2024/03/17 03:09:25;;;;;;;6.10;2.90;;;;;;;8.24;100.00;101204.72;5049488;28;20033;-69
2024/03/17 03:11:51;;;;;;;6.55;2.83;;;;;;;8.25;100.00;101201.16;5050977;28;20341;-69
2024/03/17 03:14:17;;;;;;;4.90;2.60;;;;;;;8.27;100.00;101203.66;5042857;28;20030;-69
2024/03/17 03:16:43;;;;;;;7.68;2.58;;;;;;;8.24;100.00;101209.06;5040637;28;20040;-69
2024/03/17 03:19:09;;;;;;;5.20;2.20;;;;;;;8.24;100.00;101215.09;5037099;28;20029;-69
2024/03/17 03:21:34;;;;;;;8.02;2.75;;;;;;;8.23;100.00;101216.03;5042262;28;20090;-69
2024/03/17 03:24:00;;;;;;;5.53;2.38;;;;;;;8.22;100.00;101214.38;5049742;28;20058;-69
2024/03/17 03:26:25;;;;;;;9.00;2.65;;;;;;;8.17;100.00;101218.22;5046384;28;20025;-69
2024/03/17 03:28:51;;;;;;;12.23;3.40;;;;;;;8.20;100.00;101216.25;5039288;28;20033;-69
2024/03/17 03:31:17;;;;;;;6.13;2.42;;;;;;;8.22;100.00;101216.13;5038839;28;20055;-69
2024/03/17 03:33:43;;;;;;;9.55;3.15;;;;;;;8.23;100.00;101220.41;5045206;28;20029;-69
2024/03/17 03:36:13;;;;;;;7.50;2.47;;;;;;;8.21;100.00;101212.72;5046599;28;20361;-69
2024/03/17 03:38:39;;;;;;;8.80;3.72;;;;;;;8.23;100.00;101217.78;5048880;28;20067;-69
2024/03/17 03:41:09;;;;;;;7.30;2.60;;;;;;;8.17;100.00;101213.88;5046608;28;20158;-69
2024/03/17 03:43:35;;;;;;;7.97;3.45;;;;;;;8.16;100.00;101209.63;5046371;28;20087;-69
2024/03/17 03:46:02;;;;;;;6.45;3.25;;;;;;;8.15;100.00;101209.72;5055227;28;20491;-69
2024/03/17 03:48:27;;;;;;;7.93;4.13;;;;;;;8.12;100.00;101208.19;5048193;28;20064;-69
2024/03/17 03:50:54;;;;;;;13.80;4.05;;;;;;;8.12;100.00;101209.94;5048471;28;20060;-69
2024/03/17 03:53:20;;;;;;;11.80;4.25;;;;;;;8.15;100.00;101220.94;5044559;28;20041;-69
2024/03/17 03:55:45;;;;;;;16.73;4.85;;;;;;;8.16;100.00;101211.38;5048410;28;20029;-69
2024/03/17 03:58:12;;;;;;;10.13;3.80;;;;;;;8.14;100.00;101215.88;5046809;28;20480;-69
2024/03/17 04:00:40;;;;;;;9.32;3.45;;;;;;;8.11;100.00;101219.50;5048285;28;20105;-69
2024/03/17 04:03:06;;;;;;;6.57;3.17;;;;;;;8.09;100.00;101218.78;5045195;28;20033;-69
2024/03/17 04:05:32;;;;;;;9.38;4.25;;;;;;;8.06;100.00;101219.00;5049599;28;20037;-69
2024/03/17 04:07:58;;;;;;;8.10;3.90;;;;;;;8.03;100.00;101210.63;5038912;28;20112;-69
2024/03/17 04:10:24;;;;;;;9.55;3.50;;;;;;;8.01;100.00;101223.72;5043717;28;20571;-69
2024/03/17 04:12:50;;;;;;;10.45;4.65;;;;;;;8.01;100.00;101225.50;5041619;28;20065;-69
2024/03/17 04:15:16;;;;;;;9.02;3.80;;;;;;;7.96;100.00;101226.63;5037296;28;20079;-69
2024/03/17 04:17:44;;;;;;;14.32;4.70;;;;;;;7.92;100.00;101224.38;5042768;28;20029;-69
2024/03/17 04:20:13;;;;;;;9.95;3.55;;;;;;;7.92;100.00;101225.19;5045994;28;20034;-68
2024/03/17 04:22:39;;;;;;;10.02;3.45;;;;;;;7.89;100.00;101240.16;5052460;28;20086;-69
2024/03/17 04:25:05;;;;;;;7.72;3.63;;;;;;;7.93;100.00;101246.78;5041637;28;20033;-69
2024/03/17 04:27:30;;;;;;;6.82;3.83;;;;;;;7.95;100.00;101244.91;5042295;28;20040;-69
2024/03/17 04:29:58;;;;;;;8.45;3.42;;;;;;;7.92;100.00;101234.75;5040145;28;20482;-69
2024/03/17 04:32:24;;;;;;;8.38;3.45;;;;;;;7.91;100.00;101238.28;5037419;28;20041;-69
2024/03/17 04:34:49;;;;;;;8.93;4.63;;;;;;;7.98;100.00;101240.34;5036465;28;20034;-69
2024/03/17 04:37:16;;;;;;;9.50;4.13;;;;;;;8.00;100.00;101232.44;5042543;28;20104;-69
2024/03/17 04:39:43;;;;;;;7.30;3.60;;;;;;;8.03;100.00;101231.41;5046241;28;20033;-69
2024/03/17 04:42:09;;;;;;;7.80;3.88;;;;;;;7.99;100.00;101218.63;5044229;28;20041;-69
2024/03/17 04:44:35;;;;;;;8.23;3.95;;;;;;;7.93;100.00;101226.84;5058025;28;20029;-69
2024/03/17 04:47:02;;;;;;;12.93;5.05;;;;;;;7.93;100.00;101218.25;5044277;28;20024;-69
2024/03/17 04:49:27;;;;;;;9.88;4.32;;;;;;;7.98;100.00;101218.75;5053072;28;20059;-69
2024/03/17 04:51:53;;;;;;;11.35;4.03;;;;;;;7.91;100.00;101222.72;5048567;28;20146;-69
2024/03/17 04:54:18;;;;;;;11.38;4.85;;;;;;;7.86;100.00;101224.81;5047172;28;20033;-69
2024/03/17 04:56:43;;;;;;;11.82;6.60;;;;;;;7.81;100.00;101232.09;5050195;28;20115;-69
2024/03/17 04:59:09;;;;;;;15.90;7.53;;;;;;;7.69;100.00;101230.34;5055087;28;20494;-69
2024/03/17 05:01:38;;;;;;;16.38;7.80;;;;;;;7.48;100.00;101233.50;5050797;28;20125;-69
2024/03/17 05:04:03;;;;;;;15.60;7.07;;;;;;;7.41;100.00;101234.88;5051178;28;20020;-69
2024/03/17 05:06:29;;;;;;;22.95;8.05;;;;;;;7.39;100.00;101241.91;5046024;28;20029;-69
2024/03/17 05:08:54;;;;;;;11.98;6.05;;;;;;;7.31;100.00;101241.59;5045437;28;20041;-69
2024/03/17 05:11:20;;;;;;;9.00;4.35;;;;;;;7.44;100.00;101239.00;5042767;28;20070;-69
2024/03/17 05:13:45;;;;;;;11.85;3.53;;;;;;;7.57;100.00;101253.59;5049106;28;20108;-69
2024/03/17 05:16:11;;;;;;;9.85;3.13;;;;;;;7.70;100.00;101250.16;5046794;28;20049;-69
2024/03/17 05:18:38;;;;;;;11.57;3.65;;;;;;;7.75;100.00;101255.84;5044701;28;20032;-69
2024/03/17 05:21:06;;;;;;;6.00;2.83;;;;;;;7.77;100.00;101262.59;5047190;28;20033;-69
2024/03/17 05:23:36;;;;;;;9.43;3.22;;;;;;;7.76;100.00;101260.94;5042580;28;20017;-69
2024/03/17 05:26:04;;;;;;;9.27;2.45;;;;;;;7.75;100.00;101258.44;5044650;28;20072;-69
2024/03/17 05:28:30;;;;;;;9.55;3.08;;;;;;;7.71;100.00;101267.38;5046185;28;20491;-69
2024/03/17 05:30:57;;;;;;;6.78;2.67;;;;;;;7.73;100.00;101270.69;5045617;28;20070;-69
2024/03/17 05:33:23;;;;;;;7.30;2.53;;;;;;;7.73;100.00;101278.47;5044488;28;20554;-69
2024/03/17 05:35:52;;;;;;;6.78;2.35;;;;;;;7.73;100.00;101281.06;5052725;28;20153;-69
2024/03/17 05:38:21;;;;;;;3.75;2.03;;;;;;;7.70;100.00;101279.50;5039985;28;20051;-69
2024/03/17 05:41:00;;;;;;;5.40;2.53;;;;;;;7.65;100.00;101279.84;5051510;28;20033;-69
2024/03/17 05:43:27;;;;;;;4.03;2.00;;;;;;;7.67;100.00;101282.31;5049026;28;20048;-69
2024/03/17 05:45:59;;;;;;;5.60;1.95;;;;;;;7.71;100.00;101282.94;5056259;28;20052;-69
2024/03/17 05:48:24;;;;;;;4.78;2.53;;;;;;;7.76;100.00;101278.25;5048458;28;20120;-69
2024/03/17 05:50:53;;;;;;;7.05;2.97;;;;;;;7.81;100.00;101283.97;5052671;28;20119;-69
2024/03/17 05:53:23;;;;;;;8.98;1.98;;;;;;;7.84;100.00;101279.41;5045862;28;20033;-69
2024/03/17 05:55:49;;;;;;;4.32;2.28;;;;;;;7.89;100.00;101285.09;5047843;28;20035;-69
2024/03/17 05:58:17;;;;;;;5.05;1.90;;;;;;;7.95;100.00;101282.06;5048548;28;20037;-69
2024/03/17 06:00:43;;;;;;;5.05;2.20;;;;;;;8.02;100.00;101292.03;5049496;28;20033;-69
2024/03/17 06:03:09;;;;;;;8.43;2.47;;;;;;;8.09;100.00;101285.44;5045325;28;20562;-69
2024/03/17 06:05:42;;;;;;;6.85;2.65;;;;;;;8.13;100.00;101287.72;5045913;28;20082;-69
2024/03/17 06:08:08;;;;;;;7.00;2.08;;;;;;;8.18;100.00;101284.78;5047128;28;20029;-69
2024/03/17 06:10:36;;;;;;;7.85;2.50;;;;;;;8.21;100.00;101280.22;5047921;28;20483;-69
2024/03/17 06:13:02;;;;;;;6.28;2.22;;;;;;;8.25;100.00;101276.47;5050539;28;20029;-69
2024/03/17 06:15:29;;;;;;;3.70;1.80;;;;;;;8.35;100.00;101284.44;5045448;28;20033;-69
2024/03/17 06:17:55;;;;;;;5.40;2.45;;;;;;;8.40;100.00;101286.72;5059996;28;20110;-69
2024/03/17 06:20:23;;;;;;;10.13;2.63;;;;;;;8.43;100.00;101287.34;5043172;28;20181;-69
2024/03/17 06:22:49;;;;;;;5.53;2.28;;;;;;;8.45;100.00;101287.22;5045171;28;20037;-69
2024/03/17 06:25:14;;;;;;;4.38;1.55;;;;;;;8.48;100.00;101289.59;5044166;28;20370;-69
2024/03/17 06:27:40;;;;;;;8.63;2.78;;;;;;;8.51;100.00;101290.19;5042258;28;20092;-69
2024/03/17 06:30:06;;;;;;;6.68;1.75;;;;;;;8.56;100.00;101287.25;5045019;28;20495;-68
2024/03/17 06:32:32;;;;;;;4.97;1.75;;;;;;;8.54;100.00;101295.16;5048641;28;20044;-69
2024/03/17 06:34:59;;;;;;;5.07;1.95;;;;;;;8.53;100.00;101298.69;5051941;28;20029;-69
2024/03/17 06:37:24;;;;;;;4.15;2.00;;;;;;;8.59;100.00;101292.22;5043829;28;20032;-69
2024/03/17 06:39:50;;;;;;;5.00;1.75;;;;;;;8.67;100.00;101295.09;5048412;28;20032;-69
2024/03/17 06:42:16;;;;;;;4.80;1.77;;;;;;;8.76;100.00;101299.63;5043364;28;20029;-69
2024/03/17 06:44:41;;;;;;;7.18;1.75;;;;;;;8.89;100.00;101294.34;5051245;28;20496;-69
2024/03/17 06:47:07;;;;;;;4.15;2.08;;;;;;;9.09;100.00;101290.25;5051100;28;20029;-69
2024/03/17 06:49:32;;;;;;;4.85;1.67;;;;;;;9.20;100.00;101295.47;5051557;28;20472;-69
2024/03/17 06:51:58;;;;;;;4.35;1.83;;;;;;;9.22;100.00;101286.63;5050971;28;20029;-69
2024/03/17 06:54:23;;;;;;;5.68;1.80;;;;;;;9.23;100.00;101292.66;5044243;28;20029;-69
2024/03/17 06:56:49;;;;;;;6.15;2.60;;;;;;;9.26;100.00;101298.47;5045768;28;20032;-69
2024/03/17 06:59:14;;;;;;;5.95;2.15;;;;;;;9.26;100.00;101295.84;5041667;28;20037;-69
2024/03/17 07:01:40;;;;;;;4.18;2.17;;;;;;;9.28;100.00;101293.13;5044987;28;20815;-69
2024/03/17 07:04:05;;;;;;;3.42;1.40;;;;;;;9.34;100.00;101300.47;5046354;28;20021;-69
2024/03/17 07:06:31;;;;;;;5.28;1.70;;;;;;;9.36;100.00;101297.75;5043005;28;20496;-70
2024/03/17 07:08:56;;;;;;;4.90;1.77;;;;;;;9.50;100.00;101294.91;5052919;28;20036;-71
2024/03/17 07:11:24;;;;;;;4.90;1.67;;;;;;;9.58;100.00;101298.59;5049826;28;20087;-70
2024/03/17 07:13:52;;;;;;;5.65;1.50;;;;;;;9.62;100.00;101302.63;5047992;28;20032;-70
2024/03/17 07:16:18;;;;;;;3.70;1.60;;;;;;;9.68;100.00;101301.31;5046271;28;20033;-71
2024/03/17 07:18:44;;;;;;;4.93;1.90;;;;;;;9.78;100.00;101309.25;5044807;28;20037;-70
2024/03/17 07:21:10;;;;;;;4.18;1.85;;;;;;;9.84;100.00;101314.81;5022826;28;20041;-71
2024/03/17 07:23:36;;;;;;;4.90;1.80;;;;;;;9.89;100.00;101323.09;5043716;28;20035;-70
2024/03/17 07:26:04;;;;;;;3.28;1.95;;;;;;;9.98;99.97;101327.56;5044276;28;20063;-70
2024/03/17 07:28:30;;;;;;;3.25;1.55;;;;;;;10.01;98.54;101326.50;5045666;28;20124;-71
2024/03/17 07:30:57;;;;;;;3.33;1.38;;;;;;;10.06;99.49;101318.31;5040371;28;20136;-70
2024/03/17 07:33:23;;;;;;;2.85;1.58;;;;;;;10.20;98.85;101331.94;5047269;28;20435;-71
2024/03/17 07:36:00;;;;;;;3.20;1.45;;;;;;;10.31;97.45;101331.09;5043138;28;20049;-71
2024/03/17 07:38:27;;;;;;;4.20;1.30;;;;;;;10.52;97.62;101333.75;5043039;28;20116;-70
2024/03/17 07:41:05;;;;;;;3.55;1.80;;;;;;;10.76;95.88;101328.34;5047426;28;20032;-70
2024/03/17 07:43:33;;;;;;;3.97;1.67;;;;;;;11.15;94.32;101329.47;5048283;28;20517;-70
2024/03/17 07:46:06;;;;;;;2.85;1.42;;;;;;;11.20;94.10;101328.13;5041104;28;20384;-70
2024/03/17 07:48:33;;;;;;;2.92;1.13;;;;;;;11.79;92.30;101329.31;5039326;28;20036;-70
2024/03/17 07:51:08;;;;;;;3.70;1.75;;;;;;;11.76;90.44;101339.97;5041191;28;20480;-70
2024/03/17 07:53:35;;;;;;;2.80;1.20;;;;;;;11.44;91.45;101333.06;5040050;28;20029;-70
2024/03/17 07:56:09;;;;;;;3.60;1.45;;;;;;;11.48;92.50;101334.47;5042023;28;20037;-70
2024/03/17 07:58:35;;;;;;;3.40;1.20;;;;;;;11.42;92.89;101329.75;5040231;28;20055;-70
2024/03/17 08:01:06;;;;;;;4.88;1.15;;;;;;;11.37;92.18;101333.69;5042759;28;20056;-70
2024/03/17 08:03:33;;;;;;;2.95;1.15;;;;;;;11.54;93.83;101333.13;5039735;28;20025;-70
2024/03/17 08:06:00;;;;;;;5.50;1.48;;;;;;;11.77;90.83;101326.00;5043071;28;20032;-71
2024/03/17 08:08:25;;;;;;;3.60;0.90;;;;;;;12.07;89.82;101323.34;5044171;28;20108;-71
2024/03/17 08:10:51;;;;;;;3.15;1.27;;;;;;;12.65;86.73;101328.66;5042530;28;20108;-70
2024/03/17 08:13:21;;;;;;;4.97;1.63;;;;;;;12.66;86.31;101327.69;5042456;28;20057;-70
2024/03/17 08:15:54;;;;;;;4.88;1.02;;;;;;;12.48;85.73;101331.94;5044867;28;20033;-70
2024/03/17 08:18:19;;;;;;;6.60;1.45;;;;;;;12.43;85.73;101323.66;5043308;28;20045;-70
2024/03/17 08:20:46;;;;;;;2.78;0.88;;;;;;;13.00;87.09;101317.63;5044612;28;20029;-71
2024/03/17 08:23:12;;;;;;;4.90;1.65;;;;;;;12.89;84.77;101326.44;5045075;28;20171;-70
2024/03/17 08:25:37;;;;;;;3.05;1.38;;;;;;;13.01;84.48;101321.06;5051875;28;20060;-71
2024/03/17 08:28:03;;;;;;;3.80;1.27;;;;;;;13.05;83.09;101314.59;5047094;28;20043;-71
2024/03/17 08:30:32;;;;;;;6.47;1.83;;;;;;;12.92;84.74;101317.50;5050217;28;20036;-70
2024/03/17 08:32:57;;;;;;;5.82;1.27;;;;;;;13.01;83.03;101310.59;5047392;28;20143;-71
2024/03/17 08:35:23;;;;;;;5.38;1.42;;;;;;;13.21;82.34;101310.47;5047810;28;20025;-71
2024/03/17 08:37:50;;;;;;;4.28;1.70;;;;;;;13.25;82.70;101310.97;5048516;28;20039;-71
2024/03/17 08:40:16;;;;;;;3.58;1.30;;;;;;;13.36;82.98;101302.97;5050379;28;20057;-70
2024/03/17 08:42:41;;;;;;;5.50;1.52;;;;;;;13.24;82.95;101298.88;5048638;28;20138;-71
2024/03/17 08:45:08;;;;;;;5.47;1.77;;;;;;;13.43;83.13;101296.22;5044356;28;20033;-70
2024/03/17 08:47:33;;;;;;;4.50;2.10;;;;;;;13.50;82.35;101299.09;5048628;28;20029;-71
2024/03/17 08:50:03;;;;;;;6.75;2.13;;;;;;;13.65;82.92;101297.66;5048303;28;20119;-70
2024/03/17 08:52:29;;;;;;;4.13;1.77;;;;;;;13.65;82.70;101286.34;5041705;28;20507;-72
2024/03/17 08:54:55;;;;;;;3.30;1.52;;;;;;;13.86;84.97;101282.50;5046487;28;20033;-71
2024/03/17 08:57:20;;;;;;;6.30;1.70;;;;;;;13.93;80.25;101282.75;5047234;28;20389;-70
2024/03/17 08:59:46;;;;;;;4.18;1.70;;;;;;;14.03;82.11;101280.91;5047352;28;20032;-72
2024/03/17 09:02:17;;;;;;;6.93;1.45;;;;;;;14.04;82.76;101281.72;5046456;28;20029;-72
2024/03/17 09:04:42;;;;;;;2.85;1.88;;;;;;;14.07;79.83;101279.66;5047900;28;20037;-71
2024/03/17 09:07:08;;;;;;;5.18;2.10;;;;;;;14.47;84.68;101278.44;5046417;28;20033;-71
2024/03/17 09:09:34;;;;;;;5.65;2.03;;;;;;;14.88;85.77;101279.56;5049451;28;20041;-71
2024/03/17 09:11:59;;;;;;;5.43;2.40;;;;;;;14.96;83.38;101278.81;5040943;28;20040;-70
2024/03/17 09:14:25;;;;;;;4.10;1.38;;;;;;;14.59;84.14;101271.97;5047977;28;20484;-70
2024/03/17 09:16:50;;;;;;;4.10;1.85;;;;;;;14.36;82.57;101276.00;5047304;28;20037;-71
2024/03/17 09:19:15;;;;;;;4.13;2.17;;;;;;;14.18;79.32;101270.72;5045117;28;20484;-70
2024/03/17 09:21:41;;;;;;;4.97;1.98;;;;;;;14.12;82.04;101271.34;5048149;28;20124;-71
2024/03/17 09:24:11;;;;;;;4.43;1.92;;;;;;;14.12;83.22;101261.69;5046701;28;20047;-70
2024/03/17 09:26:39;;;;;;;5.82;1.75;;;;;;;14.20;82.72;101274.84;5048721;28;20123;-70
2024/03/17 09:29:05;;;;;;;5.20;2.88;;;;;;;14.20;83.20;101274.03;5044801;28;20033;-70
2024/03/17 09:31:33;;;;;;;6.03;2.35;;;;;;;14.32;83.70;101266.78;5048678;28;20048;-70
2024/03/17 09:33:59;;;;;;;4.22;2.33;;;;;;;14.20;82.94;101261.75;5047346;28;20037;-71
2024/03/17 09:36:24;;;;;;;4.93;2.70;;;;;;;14.19;82.32;101260.09;5046120;28;20452;-70
2024/03/17 09:38:50;;;;;;;7.95;3.50;;;;;;;14.34;84.14;101256.97;5047890;28;20111;-71
2024/03/17 09:41:22;;;;;;;6.57;3.17;;;;;;;14.34;81.01;101251.72;5045027;28;20033;-70
2024/03/17 09:43:49;;;;;;;4.22;2.30;;;;;;;14.42;83.81;101250.03;5048822;28;20028;-70
2024/03/17 09:46:15;;;;;;;7.05;3.13;;;;;;;14.54;84.07;101248.00;5046435;28;20389;-70
2024/03/17 09:48:40;;;;;;;4.70;2.45;;;;;;;14.62;84.39;101244.63;5048748;28;20032;-70
2024/03/17 09:51:06;;;;;;;8.00;2.88;;;;;;;14.63;84.49;101246.28;5046374;28;20029;-70
2024/03/17 09:53:35;;;;;;;6.68;3.70;;;;;;;14.68;84.61;101244.00;5048720;28;20033;-70
2024/03/17 09:56:16;;;;;;;6.10;3.42;;;;;;;14.66;82.69;101244.16;5046919;28;20025;-70
2024/03/17 09:58:42;;;;;;;14.57;4.97;;;;;;;14.54;83.13;101248.00;5043401;28;20104;-70
2024/03/17 10:01:08;;;;;;;7.55;4.20;;;;;;;14.60;80.87;101242.16;5045978;28;20040;-71
2024/03/17 10:03:51;;;;;;;12.35;5.28;;;;;;;14.79;80.05;101241.97;5044878;28;20029;-70
2024/03/17 10:06:18;;;;;;;10.05;4.88;;;;;;;14.99;82.12;101244.41;5046559;28;20033;-70
2024/03/17 10:08:47;;;;;;;10.15;4.53;;;;;;;15.06;80.04;101234.94;5046661;28;20036;-70
2024/03/17 10:11:15;;;;;;;9.07;4.50;;;;;;;15.12;82.22;101234.31;5045126;28;20029;-70
2024/03/17 10:13:41;;;;;;;5.72;2.63;;;;;;;15.09;83.04;101232.84;5048375;28;20112;-70
2024/03/17 10:16:29;;;;;;;6.82;3.10;;;;;;;15.02;82.68;101241.47;5046013;28;20032;-70
2024/03/17 10:19:13;;;;;;;5.22;2.92;;;;;;;14.99;82.83;101237.34;5045385;28;20071;-70
2024/03/17 10:21:40;;;;;;;9.00;3.15;;;;;;;15.00;84.29;101230.31;5043308;28;20025;-70
2024/03/17 10:24:09;;;;;;;10.15;3.58;;;;;;;15.06;84.51;101233.13;5046209;28;20098;-70
2024/03/17 10:26:46;;;;;;;7.68;3.55;;;;;;;15.05;84.63;101230.66;5049471;28;20056;-70
2024/03/17 10:29:30;;;;;;;4.60;2.53;;;;;;;15.04;84.20;101234.28;5046211;28;20046;-70
2024/03/17 10:31:59;;;;;;;5.45;2.40;;;;;;;15.04;85.36;101219.34;5047485;28;20431;-72
2024/03/17 10:34:28;;;;;;;8.05;3.17;;;;;;;15.17;84.31;101227.59;5046883;28;21132;-71
2024/03/17 10:37:06;;;;;;;8.80;4.45;;;;;;;15.10;79.77;101223.16;5048099;28;20108;-71
2024/03/17 10:39:32;;;;;;;7.22;3.25;;;;;;;15.09;83.87;101221.50;5042257;28;20033;-70
2024/03/17 10:42:03;;;;;;;7.15;3.70;;;;;;;15.08;84.62;101227.72;5045943;28;20374;-70
2024/03/17 10:44:34;;;;;;;8.43;3.25;;;;;;;15.19;84.48;101227.44;5044955;28;20025;-69
2024/03/17 10:47:01;;;;;;;5.15;2.95;;;;;;;15.54;83.42;101227.31;5047122;28;20472;-69
2024/03/17 10:49:34;;;;;;;6.07;2.78;;;;;;;15.56;83.34;101232.41;5044780;28;20145;-69
2024/03/17 10:52:02;;;;;;;5.72;3.58;;;;;;;15.54;82.46;101229.94;5047181;28;20105;-70
2024/03/17 10:54:28;;;;;;;8.35;3.42;;;;;;;15.49;82.88;101228.75;5044885;28;20044;-69
2024/03/17 10:57:19;;;;;;;7.72;2.80;;;;;;;15.40;82.87;101230.50;5047978;28;20033;-69
2024/03/17 10:59:47;;;;;;;5.30;2.90;;;;;;;15.33;83.68;101224.25;5043759;28;20060;-69
2024/03/17 11:02:24;;;;;;;7.63;3.55;;;;;;;15.33;78.65;101223.41;5046143;28;20132;-69
2024/03/17 11:04:55;;;;;;;8.82;3.92;;;;;;;15.32;83.88;101230.47;5047861;28;20033;-69
2024/03/17 11:07:22;;;;;;;10.65;3.50;;;;;;;15.45;83.50;101222.16;5046817;28;20040;-69
2024/03/17 11:09:49;;;;;;;6.07;3.00;;;;;;;15.49;81.63;101224.31;5048403;28;20079;-70
2024/03/17 11:12:45;;;;;;;6.80;3.30;;;;;;;15.49;80.44;101219.06;5043099;28;20045;-70
2024/03/17 11:15:19;;;;;;;;;;;;;;;15.46;75.57;101223.81;5045336;28;20041;-71
2024/03/17 11:17:46;;;;;;;7.18;2.92;;;;;;;15.56;82.10;101219.28;5048214;28;19919;-71
2024/03/17 11:20:31;;;;;;;7.47;4.30;;;;;;;15.57;79.56;101220.94;5047007;28;20055;-69
2024/03/17 11:22:58;;;;;;;6.53;3.65;;;;;;;15.58;81.68;101217.34;5047447;28;20037;-69
2024/03/17 11:25:27;;;;;;;7.05;3.33;;;;;;;15.64;79.85;101211.41;5047207;28;20025;-69